M I D A S
Marine Information and Data Acquisition System
Tripno 1974 of the Zeeleeuw from 2010-10-18 06:53:57 to 2010-10-18 15:41:18
Back to CruiseResearch ActivitiesStationsMapUnderway DataData graphs

EquipmentUnitsComment
TimeDGPSUTC
LatitudeDGPSDM.mWGS84
LongitudeDGPSDM.mWGS84
TemperatureSBE03/SBE38deg celciusITS90
ConductivitySBE21S/mITS90
SalinitySBE21 Practical Salinity Units
ChlorophylAChelsea fluorimeterg/lCalibrated in Aceton
Missing or incorrect values are displayed as -999
Sea surface data collected by the RV Zeeleeuw from 2010-10-18 06:22:17 to 2010-10-18 15:50:19
Time Latitude Longitude Temperature Conductivity Salinity ChlorophylA
2010-10-18 06:23:22 51°13.663 2°55.958 18.5247 0.066619 0.357237 -0.687152
2010-10-18 06:24:22 51°13.663 2°55.958 18.5147 0.066619 0.357277 -0.652328
2010-10-18 06:25:22 51°13.664 2°55.96 18.5211 0.066619 0.357322 -0.687152
2010-10-18 06:26:22 51°13.663 2°55.961 18.5256 0.066619 0.357366 -0.687152
2010-10-18 06:27:22 51°13.662 2°55.959 18.5342 0.066619 0.357406 -0.687152
2010-10-18 06:28:22 51°13.662 2°55.959 18.5347 0.066619 0.357451 -0.687152
2010-10-18 06:29:22 51°13.662 2°55.959 18.5357 0.066619 0.35749 -0.687152
2010-10-18 06:30:22 51°13.663 2°55.959 18.5379 0.066619 0.357535 -0.687152
2010-10-18 06:31:22 51°13.663 2°55.96 18.541 0.066619 0.35758 -0.652328
2010-10-18 06:32:22 51°13.663 2°55.96 18.541 0.066619 0.357619 -0.687152
2010-10-18 06:33:22 51°13.663 2°55.96 18.5384 0.066619 0.35767 -0.687152
2010-10-18 06:34:22 51°13.662 2°55.961 18.5342 0.066619 0.357709 -0.687152
2010-10-18 06:35:22 51°13.662 2°55.96 18.5342 0.066619 0.357754 -0.652328
2010-10-18 06:36:22 51°13.662 2°55.961 18.5356 0.066619 0.357799 -0.721976
2010-10-18 06:37:22 51°13.663 2°55.96 18.5402 0.066619 0.357844 -0.652328
2010-10-18 06:38:22 51°13.662 2°55.96 18.5391 0.066515 0.357313 -0.687152
2010-10-18 06:39:22 51°13.663 2°55.96 18.5388 0.066515 0.357363 -0.687152
2010-10-18 06:40:22 51°13.662 2°55.96 18.5409 0.066515 0.357403 -0.652328
2010-10-18 06:41:22 51°13.662 2°55.96 18.5359 0.066515 0.357448 -0.721976
2010-10-18 06:42:22 51°13.662 2°55.959 18.5403 0.066515 0.357504 -0.687152
2010-10-18 06:43:22 51°13.663 2°55.959 18.5426 0.066515 0.357555 -0.687152
2010-10-18 06:44:22 51°13.662 2°55.959 18.5415 0.066515 0.3576 -0.687152
2010-10-18 06:45:22 51°13.663 2°55.959 18.543 0.066515 0.35765 -0.687152
2010-10-18 06:46:22 51°13.663 2°55.96 18.5391 0.066515 0.357701 -0.687152
2010-10-18 06:47:22 51°13.663 2°55.96 18.5349 0.066515 0.357746 -0.721976
2010-10-18 06:48:22 51°13.663 2°55.959 18.533 0.066515 0.357802 -0.721976
2010-10-18 06:49:22 51°13.662 2°55.96 18.532 0.066515 0.357853 -0.687152
2010-10-18 06:50:20 51°13.662 2°55.96 18.5388 0.066515 0.35791 -0.687152
2010-10-18 06:51:21 51°13.662 2°55.96 18.5466 0.066515 0.35796 -0.687152
2010-10-18 06:52:19 51°13.663 2°55.96 18.5557 0.066515 0.358006 -0.687152
2010-10-18 06:53:18 51°13.663 2°55.96 18.5402 0.066515 0.358068 -0.687152
2010-10-18 06:54:18 51°13.663 2°55.961 18.536 0.066515 0.35813 -0.687152
2010-10-18 06:55:18 51°13.663 2°55.961 18.5336 0.066515 0.358186 -0.687152
2010-10-18 06:56:18 51°13.663 2°55.961 18.5357 0.066411 0.357665 -0.652328
2010-10-18 06:57:18 51°13.662 2°55.962 18.5164 0.066411 0.357722 -0.687152
2010-10-18 06:58:18 51°13.662 2°55.961 18.525 0.066411 0.357789 -0.687152
2010-10-18 06:59:18 51°13.661 2°55.961 18.5212 0.066411 0.357851 -0.687152
2010-10-18 07:00:18 51°13.661 2°55.962 18.5257 0.066411 0.357919 -0.652328
2010-10-18 07:01:18 51°13.66 2°55.961 18.5022 0.066411 0.357982 -0.687152
2010-10-18 07:02:22 51°13.677 2°55.898 18.5068 0.066411 0.358044 -0.652328
2010-10-18 07:03:22 51°13.696 2°55.786 18.5067 0.066411 0.358106 -0.687152
2010-10-18 07:04:21 51°13.698 2°55.739 18.5162 0.066411 0.35818 -0.687152
2010-10-18 07:05:19 51°13.718 2°55.744 18.5583 0.066411 0.358231 -0.687152
2010-10-18 07:05:58 51°13.748 2°55.72 18.3305 0.066411 0.358208 -0.687152
2010-10-18 07:07:18 51°13.748 2°55.72 18.3885 0.066411 0.358333 -0.721976
2010-10-18 07:08:18 51°13.748 2°55.72 18.3793 0.066307 0.357816 -0.687152
2010-10-18 07:09:19 51°14.154 2°55.383 18.4204 0.066307 0.35789 -0.687152
2010-10-18 07:10:18 51°14.289 2°55.264 18.3489 0.066307 0.357946 -0.721976
2010-10-18 07:11:18 51°14.45 2°55.113 18.2899 0.066307 0.35802 -0.687152
2010-10-18 07:12:18 51°14.621 2°54.944 18.192 0.066307 0.358082 -0.687152
2010-10-18 07:13:18 51°14.754 2°54.715 18.2595 0.066307 0.358048 -0.687152
2010-10-18 07:14:18 51°14.692 2°54.466 18.1386 0.066307 0.358173 -0.652328
2010-10-18 07:15:18 51°14.574 2°54.241 18.1688 0.066307 0.358224 -0.687152
2010-10-18 07:16:18 51°14.458 2°54.006 18.1695 0.066307 0.358338 -0.721976
2010-10-18 07:17:18 51°14.34 2°53.773 18.1725 0.066307 0.358383 -0.687152
2010-10-18 07:18:18 51°14.221 2°53.539 18.1808 0.066307 0.358452 -0.721976
2010-10-18 07:19:18 51°14.103 2°53.304 18.1596 0.066307 0.358463 -0.687152
2010-10-18 07:20:18 51°13.997 2°53.055 18.1542 0.066202 0.357985 -0.721976
2010-10-18 07:21:18 51°13.891 2°52.804 18.1834 0.066202 0.358099 -0.687152
2010-10-18 07:22:18 51°13.791 2°52.546 18.1968 0.066202 0.358122 -0.687152
2010-10-18 07:23:18 51°13.702 2°52.297 18.2175 0.066202 0.358201 -0.687152
2010-10-18 07:24:18 51°13.645 2°52.175 18.1942 0.066202 0.35827 -0.687152
2010-10-18 07:25:18 51°13.61 2°52.041 18.2094 0.066202 0.358338 -0.721976
2010-10-18 07:26:18 51°13.566 2°51.879 18.2117 0.066202 0.358395 -0.687152
2010-10-18 07:27:18 51°13.525 2°51.704 18.2144 0.066202 0.358458 -0.687152
2010-10-18 07:28:18 51°13.501 2°51.57 18.2355 0.066098 0.357939 -0.687152
2010-10-18 07:29:18 51°13.479 2°51.491 18.2395 0.066098 0.358025 -0.687152
2010-10-18 07:30:18 51°13.431 2°51.486 18.2146 0.066098 0.358059 -0.687152
2010-10-18 07:31:18 51°13.358 2°51.489 18.2192 0.066098 0.358144 -0.687152
2010-10-18 07:32:18 51°13.307 2°51.462 18.2045 0.066098 0.358235 -0.721976
2010-10-18 07:33:18 51°13.262 2°51.424 18.2181 0.066098 0.358287 -0.687152
2010-10-18 07:34:18 51°13.212 2°51.408 18.2219 0.065994 0.357739 -0.687152
2010-10-18 07:35:18 51°13.163 2°51.396 18.2222 0.065994 0.357836 -0.652328
2010-10-18 07:36:18 51°13.115 2°51.381 18.2281 0.065994 0.357922 -0.687152
2010-10-18 07:37:18 51°13.067 2°51.368 18.2371 0.065994 0.357973 -0.721976
2010-10-18 07:38:18 51°13.019 2°51.354 18.2384 0.065994 0.358042 -0.687152
2010-10-18 07:39:18 51°12.974 2°51.335 18.2686 0.065994 0.35811 -0.687152
2010-10-18 07:40:18 51°12.936 2°51.284 18.2702 0.065994 0.358173 -0.687152
2010-10-18 07:41:18 51°12.903 2°51.207 18.2675 0.06589 0.357665 -0.687152
2010-10-18 07:42:18 51°12.865 2°51.135 18.2891 0.06589 0.357699 -0.687152
2010-10-18 07:43:18 51°12.819 2°51.075 18.3007 0.06589 0.357768 -0.687152
2010-10-18 07:44:18 51°12.776 2°51.008 18.3068 0.06589 0.357847 -0.652328
2010-10-18 07:45:18 51°12.739 2°50.939 18.3044 0.06589 0.35791 -0.687152
2010-10-18 07:46:18 51°12.709 2°50.867 18.3363 0.06589 0.357979 -0.687152
2010-10-18 07:47:18 51°12.685 2°50.79 18.3376 0.065786 0.357447 -0.721976
2010-10-18 07:48:18 51°12.664 2°50.711 18.3525 0.065786 0.357533 -0.687152
2010-10-18 07:49:18 51°12.642 2°50.634 18.3483 0.065786 0.357613 -0.687152
2010-10-18 07:50:18 51°12.62 2°50.558 18.3631 0.065786 0.357665 -0.721976
2010-10-18 07:51:18 51°12.596 2°50.484 18.3696 0.065786 0.357727 -0.687152
2010-10-18 07:52:18 51°12.567 2°50.417 18.3763 0.065786 0.35779 -0.687152
2010-10-18 07:53:18 51°12.539 2°50.349 18.3919 0.065786 0.357836 -0.687152
2010-10-18 07:54:18 51°12.51 2°50.281 18.395 0.065682 0.357344 -0.721976
2010-10-18 07:55:18 51°12.481 2°50.215 18.4157 0.065682 0.357401 -0.687152
2010-10-18 07:56:18 51°12.453 2°50.149 18.4195 0.065682 0.357481 -0.687152
2010-10-18 07:57:18 51°12.425 2°50.082 18.4127 0.065682 0.357521 -0.652328
2010-10-18 07:58:18 51°12.397 2°50.016 18.4523 0.065682 0.35759 -0.687152
2010-10-18 07:59:18 51°12.368 2°49.95 18.4516 0.065682 0.357693 -0.687152
2010-10-18 08:00:18 51°12.34 2°49.883 18.4559 0.065578 0.357166 -0.721976
2010-10-18 08:01:18 51°12.312 2°49.817 18.4565 0.065578 0.357229 -0.687152
2010-10-18 08:02:18 51°12.284 2°49.751 18.491 0.065578 0.357292 -0.721976
2010-10-18 08:03:18 51°12.256 2°49.687 18.4829 0.065578 0.357349 -0.687152
2010-10-18 08:04:18 51°12.229 2°49.622 18.5021 0.065578 0.357418 -0.721976
2010-10-18 08:05:18 51°12.202 2°49.556 18.5086 0.065474 0.356919 -0.721976
2010-10-18 08:06:18 51°12.174 2°49.49 18.5219 0.065474 0.356937 -0.721976
2010-10-18 08:07:18 51°12.162 2°49.414 18.5441 0.065474 0.357045 -0.687152
2010-10-18 08:08:18 51°12.173 2°49.33 18.5524 0.065474 0.357108 -0.687152
2010-10-18 08:09:18 51°12.206 2°49.254 18.5497 0.065474 0.357177 -0.687152
2010-10-18 08:10:18 51°12.265 2°49.209 18.5699 0.06537 0.356666 -0.721976
2010-10-18 08:11:18 51°12.338 2°49.21 18.5635 0.06537 0.356752 -0.687152
2010-10-18 08:12:18 51°12.405 2°49.266 18.5926 0.06537 0.356804 -0.687152
2010-10-18 08:13:18 51°12.452 2°49.344 18.5905 0.06537 0.35689 -0.721976
2010-10-18 08:14:18 51°12.485 2°49.421 18.586 0.06537 0.356959 -0.687152
2010-10-18 08:15:18 51°12.505 2°49.489 18.6175 0.06537 0.357022 -0.687152
2010-10-18 08:16:18 51°12.52 2°49.548 18.6207 0.065266 0.356499 -0.687152
2010-10-18 08:17:18 51°12.534 2°49.601 18.6322 0.065266 0.356539 -0.687152
2010-10-18 08:18:18 51°12.545 2°49.664 18.6543 0.065266 0.356602 -0.721976
2010-10-18 08:19:18 51°12.609 2°49.807 18.6156 0.065266 0.356648 -0.652328
2010-10-18 08:20:18 51°12.747 2°50.087 18.6374 0.065266 0.356758 -0.687152
2010-10-18 08:21:18 51°12.874 2°50.407 18.6477 0.065162 0.35616 -0.687152
2010-10-18 08:22:18 51°12.989 2°50.738 18.6631 0.065162 0.356205 -0.687152
2010-10-18 08:23:18 51°13.105 2°51.068 18.695 0.065162 0.356326 -0.687152
2010-10-18 08:24:18 51°13.242 2°51.377 18.7239 0.065162 0.356286 -0.687152
2010-10-18 08:25:18 51°13.38 2°51.583 18.7401 0.065162 0.356378 -0.721976
2010-10-18 08:26:18 51°13.459 2°51.549 18.7613 0.065162 0.356383 -0.687152
2010-10-18 08:27:18 51°13.486 2°51.506 18.7844 0.065162 0.356424 -0.687152
2010-10-18 08:28:19 51°13.504 2°51.54 18.8101 0.065058 0.3559 -0.687152
2010-10-18 08:29:20 51°13.521 2°51.582 18.8362 0.065058 0.355992 -0.687152
2010-10-18 08:30:18 51°13.536 2°51.621 18.8576 0.065058 0.356055 -0.687152
2010-10-18 08:31:18 51°13.552 2°51.66 18.8865 0.065058 0.35613 -0.721976
2010-10-18 08:32:18 51°13.568 2°51.7 18.9121 0.065058 0.356227 -0.687152
2010-10-18 08:33:18 51°13.585 2°51.739 18.9364 0.065058 0.356291 -0.721976
2010-10-18 08:34:18 51°13.603 2°51.777 18.9644 0.064954 0.355783 -0.687152
2010-10-18 08:35:18 51°13.623 2°51.816 18.9937 0.064954 0.355858 -0.687152
2010-10-18 08:36:18 51°13.659 2°51.852 19.0143 0.064954 0.355927 -0.721976
2010-10-18 08:37:18 51°13.703 2°51.91 19.0419 0.064954 0.356019 -0.721976
2010-10-18 08:38:18 51°13.748 2°52.039 19.0567 0.064954 0.356048 -0.687152
2010-10-18 08:39:18 51°13.828 2°52.267 19.0842 0.06485 0.35554 -0.721976
2010-10-18 08:40:18 51°13.926 2°52.574 19.0995 0.06485 0.355546 -0.687152
2010-10-18 08:41:18 51°14.036 2°52.915 19.1141 0.06485 0.355592 -0.687152
2010-10-18 08:42:18 51°14.152 2°53.249 19.1459 0.06485 0.355598 -0.687152
2010-10-18 08:43:18 51°14.289 2°53.561 19.1991 0.06485 0.355753 -0.687152
2010-10-18 08:44:18 51°14.472 2°53.809 19.2509 0.064746 0.355862 -0.721976
2010-10-18 08:45:18 51°14.698 2°53.868 19.2385 0.064642 0.35386 -0.721976
2010-10-18 08:46:18 51°14.915 2°53.786 19.2726 0.064746 0.355343 -0.721976
2010-10-18 08:47:18 51°15.12 2°53.654 19.2866 0.064746 0.354648 -0.687152
2010-10-18 08:48:18 51°15.329 2°53.534 19.3129 0.064746 0.355084 -0.687152
2010-10-18 08:49:18 51°15.541 2°53.424 19.3509 0.064746 0.355136 -0.687152
2010-10-18 08:50:18 51°15.755 2°53.318 19.3687 0.064746 0.355239 -0.721976
2010-10-18 08:51:18 51°15.966 2°53.204 19.3917 0.064746 0.355274 -0.721976
2010-10-18 08:52:18 51°16.177 2°53.094 19.4006 0.064746 0.35536 -0.721976
2010-10-18 08:53:18 51°16.389 2°52.985 19.4268 0.064746 0.355458 -0.652328
2010-10-18 08:54:18 51°16.603 2°52.88 19.475 0.064746 0.35551 -0.652328
2010-10-18 08:55:18 51°16.815 2°52.771 19.5044 0.064642 0.355105 -0.687152
2010-10-18 08:56:18 51°17.028 2°52.658 19.5239 0.064642 0.355122 -0.687152
2010-10-18 08:57:18 51°17.241 2°52.545 19.5495 0.064538 0.354849 -0.687152
2010-10-18 08:58:18 51°17.455 2°52.431 19.5463 0.064538 0.354676 -0.687152
2010-10-18 08:59:18 51°17.669 2°52.317 19.5769 0.064538 0.354866 -0.687152
2010-10-18 09:00:18 51°17.881 2°52.199 19.599 0.064538 0.354936 -0.687152
2010-10-18 09:01:18 51°18.094 2°52.081 19.5509 0.064538 0.355062 -0.652328
2010-10-18 09:02:18 51°18.306 2°51.965 19.6437 0.064434 0.354587 -0.687152
2010-10-18 09:03:18 51°18.52 2°51.852 19.6773 0.064434 0.354628 -0.687152
2010-10-18 09:04:18 51°18.733 2°51.738 19.6904 0.064434 0.35476 -0.687152
2010-10-18 09:05:18 51°18.948 2°51.626 19.6786 0.06433 0.354533 -0.687152
2010-10-18 09:06:18 51°19.16 2°51.51 19.6703 0.06433 0.35451 -0.721976
2010-10-18 09:07:18 51°19.373 2°51.397 19.7581 0.064226 0.353878 -0.721976
2010-10-18 09:08:18 51°19.584 2°51.279 19.8002 0.064226 0.353774 -0.617504
2010-10-18 09:09:18 51°19.794 2°51.165 19.7901 0.064122 0.352805 -0.617504
2010-10-18 09:10:18 51°20.003 2°51.051 19.8548 0.064122 0.353178 -0.652328
2010-10-18 09:11:18 51°20.213 2°50.935 19.8546 0.064122 0.353195 -0.652328
2010-10-18 09:12:18 51°20.419 2°50.814 19.9473 0.064122 0.353684 -0.652328
2010-10-18 09:13:18 51°20.574 2°50.587 19.9231 0.064122 0.353103 -0.617504
2010-10-18 09:14:18 51°20.718 2°50.341 19.936 0.064018 0.352696 -0.652328
2010-10-18 09:15:18 51°20.874 2°50.109 19.963 0.064018 0.353202 -0.652328
2010-10-18 09:16:18 51°21.013 2°49.857 19.9906 0.064018 0.353162 -0.617504
2010-10-18 09:17:18 51°21.127 2°49.579 20.0041 0.064018 0.35326 -0.617504
2010-10-18 09:18:18 51°21.251 2°49.308 20.0302 0.064018 0.353317 -0.617504
2010-10-18 09:19:18 51°21.385 2°49.046 20.0623 0.064018 0.353444 -0.617504
2010-10-18 09:20:18 51°21.552 2°48.841 19.9793 0.063914 0.35299 -0.617504
2010-10-18 09:21:18 51°21.768 2°48.763 20.0545 0.063914 0.353175 -0.652328
2010-10-18 09:22:18 51°21.996 2°48.769 20.1931 0.063914 0.35234 -0.617504
2010-10-18 09:23:18 51°22.224 2°48.781 20.0999 0.06381 0.352421 -0.617504
2010-10-18 09:24:18 51°22.452 2°48.792 20.141 0.06381 0.352576 -0.58268
2010-10-18 09:25:18 51°22.683 2°48.81 20.196 0.06381 0.351984 -0.617504
2010-10-18 09:26:18 51°22.916 2°48.822 20.1824 0.06381 0.35249 -0.58268
2010-10-18 09:27:18 51°23.148 2°48.833 20.2352 0.06381 0.35324 -0.58268
2010-10-18 09:28:18 51°23.381 2°48.846 20.2201 0.06381 0.352616 -0.617504
2010-10-18 09:29:18 51°23.614 2°48.858 20.2476 0.063706 0.351392 -0.58268
2010-10-18 09:30:18 51°23.845 2°48.876 20.268 0.063706 0.35226 -0.58268
2010-10-18 09:31:18 51°24.074 2°48.883 20.2994 0.063706 0.352681 -0.617504
2010-10-18 09:32:18 51°24.304 2°48.904 20.343 0.063706 0.35286 -0.58268
2010-10-18 09:33:18 51°24.532 2°48.905 20.3404 0.063706 0.352692 -0.58268
2010-10-18 09:34:18 51°24.758 2°48.886 20.3782 0.063706 0.352196 -0.547855
2010-10-18 09:35:18 51°24.883 2°48.789 20.4135 0.063706 0.352513 -0.58268
2010-10-18 09:36:18 51°24.9 2°48.659 20.4288 0.063602 0.352127 -0.58268
2010-10-18 09:37:18 51°24.922 2°48.516 20.4576 0.063706 0.352895 -0.58268
2010-10-18 09:38:18 51°24.951 2°48.393 20.4727 0.063602 0.352497 -0.617504
2010-10-18 09:39:18 51°24.984 2°48.373 20.5007 0.063602 0.352514 -0.617504
2010-10-18 09:40:18 51°25.008 2°48.408 20.5202 0.063602 0.352648 -0.617504
2010-10-18 09:41:18 51°25.034 2°48.444 20.5392 0.063602 0.352798 -0.58268
2010-10-18 09:42:18 51°25.059 2°48.48 20.5691 0.063602 0.352949 -0.58268
2010-10-18 09:43:18 51°25.083 2°48.521 20.58 0.063602 0.353053 -0.617504
2010-10-18 09:44:18 51°25.107 2°48.562 20.6022 0.063602 0.353222 -0.58268
2010-10-18 09:45:18 51°25.129 2°48.604 20.6238 0.063602 0.353327 -0.547855
2010-10-18 09:46:18 51°25.152 2°48.646 20.6342 0.063602 0.353507 -0.58268
2010-10-18 09:47:18 51°25.175 2°48.689 20.6599 0.063498 0.35312 -0.58268
2010-10-18 09:48:18 51°25.197 2°48.733 20.6776 0.063498 0.353138 -0.58268
2010-10-18 09:49:18 51°25.219 2°48.778 20.7018 0.063498 0.353353 -0.58268
2010-10-18 09:50:18 51°25.242 2°48.822 20.7218 0.063498 0.353522 -0.58268
2010-10-18 09:51:18 51°25.268 2°48.864 20.7464 0.063498 0.353528 -0.547855
2010-10-18 09:52:18 51°25.362 2°48.777 20.7023 0.063498 0.353657 -0.58268
2010-10-18 09:53:18 51°25.496 2°48.54 20.7459 0.063498 0.353908 -0.58268
2010-10-18 09:54:18 51°25.529 2°48.353 20.7852 0.063498 0.354031 -0.547855
2010-10-18 09:55:18 51°25.492 2°48.341 20.7795 0.063498 0.354107 -0.58268
2010-10-18 09:56:18 51°25.418 2°48.365 20.7923 0.063498 0.354248 -0.58268
2010-10-18 09:57:18 51°25.373 2°48.356 20.8126 0.063498 0.35426 -0.617504
2010-10-18 09:58:18 51°25.343 2°48.33 20.8325 0.063394 0.353913 -0.58268
2010-10-18 09:59:18 51°25.309 2°48.281 20.8497 0.063394 0.354077 -0.547855
2010-10-18 10:00:18 51°25.262 2°48.229 20.8611 0.063394 0.354183 -0.58268
2010-10-18 10:01:18 51°25.24 2°48.167 20.8739 0.063394 0.354312 -0.547855
2010-10-18 10:02:18 51°25.229 2°48.107 20.9033 0.063394 0.354459 -0.58268
2010-10-18 10:03:18 51°25.201 2°48.069 20.9103 0.063394 0.354548 -0.547855
2010-10-18 10:04:18 51°25.171 2°48.03 20.9268 0.06329 0.354 -0.547855
2010-10-18 10:05:18 51°25.149 2°47.986 20.9413 0.06329 0.354142 -0.547855
2010-10-18 10:06:18 51°25.128 2°47.94 20.9633 0.06329 0.354248 -0.58268
2010-10-18 10:07:18 51°25.105 2°47.893 20.9761 0.06329 0.354318 -0.58268
2010-10-18 10:08:18 51°25.086 2°47.842 20.9935 0.06329 0.354425 -0.58268
2010-10-18 10:09:18 51°25.068 2°47.789 21.0052 0.06329 0.354531 -0.547855
2010-10-18 10:10:18 51°25.045 2°47.736 21.026 0.06329 0.354602 -0.58268
2010-10-18 10:11:18 51°25.021 2°47.679 21.0356 0.063186 0.354136 -0.58268
2010-10-18 10:12:18 51°24.994 2°47.619 21.0471 0.063186 0.354189 -0.547855
2010-10-18 10:13:18 51°24.968 2°47.554 21.0673 0.063186 0.354301 -0.547855
2010-10-18 10:14:18 51°24.944 2°47.49 21.0851 0.063186 0.354384 -0.547855
2010-10-18 10:15:18 51°24.918 2°47.425 21.1009 0.063186 0.354484 -0.547855
2010-10-18 10:16:18 51°24.892 2°47.36 21.1104 0.063082 0.353989 -0.547855
2010-10-18 10:17:18 51°24.865 2°47.295 21.1273 0.063082 0.354065 -0.547855
2010-10-18 10:18:18 51°24.838 2°47.232 21.1431 0.063082 0.354196 -0.58268
2010-10-18 10:19:18 51°24.81 2°47.167 21.1549 0.063082 0.354219 -0.58268
2010-10-18 10:20:18 51°24.782 2°47.1 21.1649 0.063082 0.354349 -0.547855
2010-10-18 10:21:18 51°24.754 2°47.035 21.192 0.063082 0.354421 -0.547855
2010-10-18 10:22:18 51°24.728 2°46.969 21.2003 0.063082 0.354521 -0.513031
2010-10-18 10:23:18 51°24.701 2°46.905 21.2189 0.062978 0.353995 -0.547855
2010-10-18 10:24:18 51°24.676 2°46.84 21.2314 0.062978 0.354072 -0.547855
2010-10-18 10:25:18 51°24.651 2°46.778 21.2419 0.062978 0.354179 -0.58268
2010-10-18 10:26:18 51°24.61 2°46.743 21.2461 0.062978 0.354238 -0.547855
2010-10-18 10:27:18 51°24.559 2°46.741 21.2649 0.062978 0.354357 -0.547855
2010-10-18 10:28:18 51°24.503 2°46.763 21.2766 0.062978 0.354398 -0.58268
2010-10-18 10:29:18 51°24.453 2°46.78 21.2963 0.062874 0.35396 -0.547855
2010-10-18 10:30:18 51°24.405 2°46.783 21.3148 0.062874 0.354085 -0.58268
2010-10-18 10:31:18 51°24.358 2°46.797 21.3256 0.062874 0.354221 -0.58268
2010-10-18 10:32:18 51°24.312 2°46.811 21.3434 0.062874 0.354346 -0.513031
2010-10-18 10:33:18 51°24.267 2°46.815 21.3547 0.06277 0.353902 -0.547855
2010-10-18 10:34:18 51°24.226 2°46.804 21.3625 0.06277 0.354062 -0.547855
2010-10-18 10:35:18 51°24.19 2°46.778 21.3821 0.06277 0.354229 -0.547855
2010-10-18 10:36:18 51°24.167 2°46.734 21.4005 0.062666 0.353802 -0.58268
2010-10-18 10:37:18 51°24.165 2°46.677 21.4127 0.062666 0.353927 -0.58268
2010-10-18 10:38:18 51°24.195 2°46.648 21.4178 0.062666 0.354088 -0.547855
2010-10-18 10:39:18 51°24.226 2°46.65 21.4289 0.062562 0.353541 -0.547855
2010-10-18 10:40:18 51°24.255 2°46.666 21.4475 0.062562 0.35369 -0.547855
2010-10-18 10:41:18 51°24.325 2°46.667 21.4341 0.062562 0.353714 -0.547855
2010-10-18 10:42:18 51°24.471 2°46.786 21.4471 0.062562 0.353899 -0.547855
2010-10-18 10:43:18 51°24.655 2°46.963 21.4463 0.062458 0.353476 -0.547855
2010-10-18 10:44:18 51°24.844 2°47.175 21.46 0.062458 0.353178 -0.547855
2010-10-18 10:45:18 51°25.023 2°47.41 21.4797 0.062458 0.353518 -0.547855
2010-10-18 10:46:18 51°25.203 2°47.647 21.5005 0.062458 0.353972 -0.547855
2010-10-18 10:47:18 51°25.383 2°47.879 21.5045 0.062353 0.353095 -0.547855
2010-10-18 10:48:18 51°25.562 2°48.111 21.5203 0.062353 0.352934 -0.58268
2010-10-18 10:49:18 51°25.743 2°48.342 21.5418 0.062353 0.352934 -0.58268
2010-10-18 10:50:18 51°25.92 2°48.573 21.5493 0.062353 0.353256 -0.58268
2010-10-18 10:51:18 51°26.1 2°48.806 21.572 0.062353 0.353215 -0.547855
2010-10-18 10:52:18 51°26.282 2°49.031 21.5775 0.062353 0.352893 -0.547855
2010-10-18 10:53:18 51°26.461 2°49.264 21.5954 0.062353 0.352952 -0.547855
2010-10-18 10:54:18 51°26.641 2°49.491 21.6063 0.062353 0.353137 -0.58268
2010-10-18 10:55:18 51°26.822 2°49.716 21.6121 0.062249 0.352327 -0.58268
2010-10-18 10:56:18 51°27.006 2°49.942 21.6253 0.062249 0.353132 -0.513031
2010-10-18 10:57:18 51°27.185 2°50.175 21.6372 0.062249 0.352893 -0.547855
2010-10-18 10:58:18 51°27.365 2°50.403 21.6454 0.062249 0.352845 -0.547855
2010-10-18 10:59:18 51°27.544 2°50.622 21.6505 0.062249 0.352226 -0.58268
2010-10-18 11:00:18 51°27.722 2°50.846 21.6384 0.062145 0.351423 -0.58268
2010-10-18 11:01:18 51°27.902 2°51.077 21.6688 0.062145 0.351874 -0.547855
2010-10-18 11:02:18 51°28.087 2°51.306 21.6862 0.062145 0.351737 -0.547855
2010-10-18 11:03:18 51°28.26 2°51.546 21.6971 0.062145 0.351886 -0.547855
2010-10-18 11:04:18 51°28.411 2°51.828 21.6952 0.062145 0.351933 -0.513031
2010-10-18 11:05:18 51°28.559 2°52.114 21.7134 0.062145 0.352451 -0.547855
2010-10-18 11:06:18 51°28.705 2°52.398 21.7176 0.062145 0.351387 -0.547855
2010-10-18 11:07:18 51°28.855 2°52.673 21.7211 0.062145 0.351897 -0.547855
2010-10-18 11:08:18 51°29.003 2°52.953 21.6103 0.062041 0.351498 -0.58268
2010-10-18 11:09:18 51°29.154 2°53.228 21.6332 0.062041 0.35078 -0.547855
2010-10-18 11:10:18 51°29.302 2°53.505 21.7022 0.062041 0.351444 -0.513031
2010-10-18 11:11:18 51°29.451 2°53.779 21.7359 0.062041 0.351843 -0.547855
2010-10-18 11:12:18 51°29.604 2°54.053 21.7092 0.062041 0.351646 -0.547855
2010-10-18 11:13:18 51°29.753 2°54.336 21.7634 0.062041 0.351563 -0.547855
2010-10-18 11:14:18 51°29.902 2°54.606 21.7599 0.062041 0.35164 -0.547855
2010-10-18 11:15:18 51°30.059 2°54.875 21.7607 0.062041 0.351866 -0.547855
2010-10-18 11:16:18 51°30.218 2°55.137 21.7945 0.061937 0.351412 -0.58268
2010-10-18 11:17:18 51°30.368 2°55.413 21.7955 0.061937 0.350842 -0.547855
2010-10-18 11:18:18 51°30.519 2°55.69 21.7836 0.061937 0.351716 -0.547855
2010-10-18 11:19:18 51°30.673 2°55.965 21.7928 0.061937 0.35127 -0.513031
2010-10-18 11:20:18 51°30.828 2°56.247 21.8152 0.061937 0.351418 -0.513031
2010-10-18 11:21:18 51°30.984 2°56.533 21.8013 0.061937 0.351085 -0.547855
2010-10-18 11:22:18 51°31.134 2°56.809 21.8232 0.061937 0.351573 -0.513031
2010-10-18 11:23:18 51°31.288 2°57.088 21.8085 0.061937 0.351537 -0.547855
2010-10-18 11:24:18 51°31.438 2°57.368 21.7572 0.061937 0.351157 -0.547855
2010-10-18 11:25:18 51°31.592 2°57.651 21.7716 0.061937 0.352164 -0.547855
2010-10-18 11:26:18 51°31.75 2°57.934 21.8293 0.061833 0.350958 -0.547855
2010-10-18 11:27:18 51°31.907 2°58.203 21.8629 0.061833 0.350928 -0.58268
2010-10-18 11:28:18 51°32.065 2°58.464 21.8106 0.061833 0.351279 -0.547855
2010-10-18 11:29:18 51°32.222 2°58.728 21.8363 0.061833 0.351751 -0.513031
2010-10-18 11:30:18 51°32.37 2°59.011 21.8549 0.061833 0.351083 -0.547855
2010-10-18 11:31:18 51°32.52 2°59.285 21.8388 0.061833 0.350982 -0.547855
2010-10-18 11:32:18 51°32.682 2°59.544 21.7906 0.061833 0.351 -0.547855
2010-10-18 11:33:18 51°32.859 2°59.769 21.8223 0.061833 0.352242 -0.547855
2010-10-18 11:34:18 51°33.053 2°59.947 21.8424 0.061833 0.351244 -0.547855
2010-10-18 11:35:18 51°33.258 3°0.118 21.7987 0.061833 0.351339 -0.547855
2010-10-18 11:36:18 51°33.469 3°0.254 21.5493 0.061833 0.351937 -0.547855
2010-10-18 11:37:18 51°33.687 3°0.362 21.6487 0.061833 0.35156 -0.547855
2010-10-18 11:38:18 51°33.908 3°0.455 21.811 0.061833 0.351279 -0.547855
2010-10-18 11:39:18 51°34.126 3°0.566 21.4262 0.061833 0.352158 -0.513031
2010-10-18 11:40:18 51°34.342 3°0.526 21.6984 0.061729 0.351218 -0.547855
2010-10-18 11:41:18 51°34.478 3°0.438 21.636 0.061729 0.351212 -0.513031
2010-10-18 11:42:18 51°34.555 3°0.373 21.6633 0.061729 0.351212 -0.547855
2010-10-18 11:43:18 51°34.598 3°0.345 21.6977 0.061729 0.351427 -0.547855
2010-10-18 11:44:18 51°34.626 3°0.359 21.7097 0.061729 0.351565 -0.547855
2010-10-18 11:45:18 51°34.653 3°0.382 21.7522 0.061729 0.351679 -0.58268
2010-10-18 11:46:18 51°34.678 3°0.411 21.7726 0.061729 0.351697 -0.547855
2010-10-18 11:47:18 51°34.702 3°0.443 21.7932 0.061729 0.35181 -0.513031
2010-10-18 11:48:18 51°34.725 3°0.475 21.8093 0.061729 0.351918 -0.547855
2010-10-18 11:49:18 51°34.748 3°0.504 21.8346 0.061729 0.351882 -0.513031
2010-10-18 11:50:18 51°34.773 3°0.533 21.8659 0.061729 0.352129 -0.547855
2010-10-18 11:51:18 51°34.797 3°0.562 21.8652 0.061729 0.352069 -0.58268
2010-10-18 11:52:18 51°34.842 3°0.576 21.8965 0.061729 0.352195 -0.58268
2010-10-18 11:53:18 51°34.904 3°0.648 21.9841 0.061729 0.352369 -0.547855
2010-10-18 11:54:18 51°34.903 3°0.752 22.0059 0.061729 0.352201 -0.547855
2010-10-18 11:55:18 51°34.845 3°0.804 21.8933 0.061729 0.352285 -0.547855
2010-10-18 11:56:18 51°34.704 3°0.845 22.0275 0.061625 0.351852 -0.58268
2010-10-18 11:57:18 51°34.513 3°0.833 22.0325 0.061625 0.351955 -0.58268
2010-10-18 11:58:18 51°34.322 3°0.84 22.046 0.061625 0.352117 -0.58268
2010-10-18 11:59:18 51°34.133 3°0.852 22.074 0.061625 0.352189 -0.547855
2010-10-18 12:00:18 51°33.945 3°0.867 22.0899 0.061625 0.352425 -0.547855
2010-10-18 12:01:18 51°33.759 3°0.885 22.0779 0.061625 0.352473 -0.547855
2010-10-18 12:02:18 51°33.568 3°0.903 22.117 0.061521 0.35216 -0.547855
2010-10-18 12:03:18 51°33.373 3°0.916 22.1261 0.061521 0.352227 -0.513031
2010-10-18 12:04:18 51°33.178 3°0.934 22.136 0.061521 0.352438 -0.547855
2010-10-18 12:05:18 51°32.984 3°0.951 22.1381 0.061521 0.352378 -0.513031
2010-10-18 12:06:18 51°32.789 3°0.963 22.1453 0.061521 0.352638 -0.547855
2010-10-18 12:07:18 51°32.592 3°0.977 22.1831 0.061417 0.352271 -0.547855
2010-10-18 12:08:18 51°32.398 3°0.992 22.1804 0.061417 0.352331 -0.58268
2010-10-18 12:09:18 51°32.203 3°1.003 22.1943 0.061417 0.352374 -0.547855
2010-10-18 12:10:18 51°32.008 3°1.014 22.2152 0.061417 0.352568 -0.547855
2010-10-18 12:11:18 51°31.811 3°1.025 22.2181 0.061417 0.352683 -0.547855
2010-10-18 12:12:18 51°31.615 3°1.036 22.2325 0.061313 0.352528 -0.547855
2010-10-18 12:13:18 51°31.417 3°1.043 22.2386 0.061313 0.352169 -0.513031
2010-10-18 12:14:18 51°31.219 3°1.05 22.2541 0.061313 0.35254 -0.513031
2010-10-18 12:15:18 51°31.02 3°1.056 22.2646 0.061313 0.352674 -0.547855
2010-10-18 12:16:18 51°30.825 3°1.101 21.1762 0.061313 0.352728 -0.58268
2010-10-18 12:17:18 51°30.644 3°1.247 21.4879 0.061209 0.352153 -0.513031
2010-10-18 12:18:18 51°30.472 3°1.423 21.8 0.061209 0.352482 -0.547855
2010-10-18 12:19:18 51°30.295 3°1.585 21.5483 0.061209 0.351825 -0.513031
2010-10-18 12:20:18 51°30.114 3°1.742 21.6887 0.061209 0.352226 -0.513031
2010-10-18 12:21:18 51°29.934 3°1.9 21.7617 0.061209 0.3525 -0.547855
2010-10-18 12:22:18 51°29.756 3°2.058 21.4764 0.061209 0.352561 -0.513031
2010-10-18 12:23:18 51°29.574 3°2.208 21.4055 0.061105 0.351864 -0.547855
2010-10-18 12:24:18 51°29.392 3°2.354 21.4814 0.061209 0.352409 -0.547855
2010-10-18 12:25:18 51°29.211 3°2.497 21.5495 0.061105 0.351748 -0.58268
2010-10-18 12:26:18 51°29.032 3°2.649 21.7516 0.061105 0.351839 -0.547855
2010-10-18 12:27:18 51°28.851 3°2.798 21.7997 0.061105 0.351949 -0.547855
2010-10-18 12:28:18 51°28.671 3°2.948 21.6261 0.061105 0.351414 -0.547855
2010-10-18 12:29:18 51°28.489 3°3.094 21.6278 0.061105 0.351493 -0.547855
2010-10-18 12:30:18 51°28.313 3°3.258 21.4879 0.061105 0.352095 -0.547855
2010-10-18 12:31:18 51°28.156 3°3.476 21.8012 0.061105 0.351724 -0.58268
2010-10-18 12:32:18 51°28.003 3°3.706 21.666 0.061105 0.351657 -0.513031
2010-10-18 12:33:18 51°27.846 3°3.924 21.5952 0.061105 0.351724 -0.547855
2010-10-18 12:34:18 51°27.691 3°4.141 21.7772 0.061105 0.351724 -0.547855
2010-10-18 12:35:18 51°27.534 3°4.351 21.701 0.061105 0.352253 -0.547855
2010-10-18 12:36:18 51°27.371 3°4.546 21.7747 0.061105 0.352058 -0.58268
2010-10-18 12:37:18 51°27.209 3°4.742 21.7293 0.061105 0.351924 -0.547855
2010-10-18 12:38:18 51°27.046 3°4.942 21.7322 0.061105 0.351888 -0.58268
2010-10-18 12:39:18 51°26.885 3°5.143 21.6924 0.061105 0.352278 -0.547855
2010-10-18 12:40:18 51°26.724 3°5.341 21.7835 0.061105 0.352601 -0.547855
2010-10-18 12:41:18 51°26.565 3°5.541 21.7785 0.061105 0.3519 -0.547855
2010-10-18 12:42:18 51°26.407 3°5.741 21.7484 0.061105 0.352393 -0.58268
2010-10-18 12:43:18 51°26.247 3°5.939 21.7722 0.061105 0.352369 -0.58268
2010-10-18 12:44:18 51°26.087 3°6.137 21.7407 0.061105 0.352131 -0.547855
2010-10-18 12:45:18 51°25.93 3°6.336 21.8051 0.061105 0.352217 -0.547855
2010-10-18 12:46:18 51°25.771 3°6.532 21.8219 0.061105 0.35276 -0.547855
2010-10-18 12:47:18 51°25.61 3°6.726 21.8318 0.061001 0.351409 -0.58268
2010-10-18 12:48:18 51°25.449 3°6.92 21.7459 0.061105 0.352406 -0.58268
2010-10-18 12:49:18 51°25.289 3°7.115 21.7852 0.061105 0.352022 -0.58268
2010-10-18 12:50:18 51°25.128 3°7.307 21.8109 0.061105 0.352265 -0.547855
2010-10-18 12:51:18 51°24.972 3°7.508 21.7803 0.061001 0.351744 -0.547855
2010-10-18 12:52:18 51°24.824 3°7.725 21.8148 0.061001 0.352061 -0.547855
2010-10-18 12:53:18 51°24.689 3°7.966 21.8562 0.061001 0.351494 -0.58268
2010-10-18 12:54:18 51°24.554 3°8.207 21.8685 0.061001 0.352384 -0.58268
2010-10-18 12:55:18 51°24.425 3°8.455 21.7569 0.061001 0.351926 -0.547855
2010-10-18 12:56:18 51°24.292 3°8.706 21.8037 0.061001 0.351567 -0.547855
2010-10-18 12:57:18 51°24.16 3°8.964 21.9063 0.061001 0.351646 -0.58268
2010-10-18 12:58:18 51°24.05 3°9.246 21.7993 0.061001 0.352171 -0.547855
2010-10-18 12:59:18 51°23.997 3°9.572 21.8842 0.061001 0.352281 -0.617504
2010-10-18 13:00:18 51°23.953 3°9.902 21.852 0.061001 0.351725 -0.547855
2010-10-18 13:01:18 51°23.941 3°10.246 21.8907 0.061001 0.352024 -0.58268
2010-10-18 13:02:18 51°23.956 3°10.59 21.8602 0.061001 0.351987 -0.547855
2010-10-18 13:03:18 51°23.982 3°10.936 21.8761 0.061001 0.352042 -0.58268
2010-10-18 13:04:18 51°24.009 3°11.274 21.8717 0.061001 0.352305 -0.58268
2010-10-18 13:05:18 51°24.051 3°11.609 21.874 0.061001 0.352207 -0.547855
2010-10-18 13:06:18 51°24.094 3°11.938 21.8796 0.061001 0.352128 -0.58268
2010-10-18 13:07:18 51°24.13 3°12.272 21.9039 0.061001 0.352421 -0.547855
2010-10-18 13:08:18 51°24.151 3°12.603 21.9205 0.061001 0.351994 -0.547855
2010-10-18 13:09:18 51°24.17 3°12.933 21.9108 0.061001 0.352256 -0.58268
2010-10-18 13:10:18 51°24.188 3°13.257 21.9058 0.061001 0.352238 -0.547855
2010-10-18 13:11:18 51°24.274 3°13.545 21.9276 0.061001 0.352507 -0.58268
2010-10-18 13:12:18 51°24.312 3°13.698 21.9433 0.061001 0.352556 -0.547855
2010-10-18 13:13:18 51°24.285 3°13.752 21.9306 0.061001 0.352207 -0.547855
2010-10-18 13:14:18 51°24.249 3°13.755 21.9436 0.061001 0.352336 -0.58268
2010-10-18 13:15:18 51°24.194 3°13.697 21.9429 0.061001 0.352403 -0.58268
2010-10-18 13:16:18 51°24.136 3°13.598 21.9384 0.061001 0.352452 -0.58268
2010-10-18 13:17:18 51°24.112 3°13.515 21.944 0.061001 0.352501 -0.58268
2010-10-18 13:18:18 51°24.099 3°13.44 21.9447 0.061001 0.352513 -0.617504
2010-10-18 13:19:18 51°24.093 3°13.368 21.9541 0.061001 0.35258 -0.547855
2010-10-18 13:20:18 51°24.102 3°13.293 21.9532 0.061001 0.352568 -0.58268
2010-10-18 13:21:18 51°24.105 3°13.22 21.9613 0.061001 0.352617 -0.58268
2010-10-18 13:22:18 51°24.1 3°13.146 21.968 0.061001 0.352684 -0.617504
2010-10-18 13:23:18 51°24.084 3°13.062 21.9715 0.061001 0.352715 -0.547855
2010-10-18 13:24:18 51°24.064 3°12.975 21.975 0.061001 0.35274 -0.58268
2010-10-18 13:25:18 51°24.044 3°12.885 21.9841 0.061001 0.352776 -0.547855
2010-10-18 13:26:18 51°24.027 3°12.791 21.9831 0.061001 0.352825 -0.58268
2010-10-18 13:27:18 51°24.016 3°12.691 21.9825 0.061001 0.352856 -0.58268
2010-10-18 13:28:18 51°24.005 3°12.594 21.9868 0.061001 0.352874 -0.58268
2010-10-18 13:29:18 51°23.998 3°12.492 21.9956 0.061001 0.352911 -0.547855
2010-10-18 13:30:18 51°23.99 3°12.393 22.0242 0.061001 0.352942 -0.547855
2010-10-18 13:31:18 51°23.982 3°12.295 22.0349 0.061001 0.352973 -0.547855
2010-10-18 13:32:18 51°23.976 3°12.196 22.048 0.060897 0.352376 -0.547855
2010-10-18 13:33:18 51°23.968 3°12.098 22.0627 0.060897 0.352406 -0.58268
2010-10-18 13:34:18 51°23.962 3°11.998 22.0744 0.060897 0.352431 -0.547855
2010-10-18 13:35:18 51°23.958 3°11.895 22.0851 0.060897 0.352474 -0.58268
2010-10-18 13:36:18 51°23.955 3°11.795 22.0941 0.060897 0.352492 -0.58268
2010-10-18 13:37:18 51°23.957 3°11.695 22.1033 0.060897 0.352523 -0.58268
2010-10-18 13:38:18 51°23.96 3°11.595 22.1068 0.060897 0.352547 -0.547855
2010-10-18 13:39:18 51°23.963 3°11.496 22.1139 0.060897 0.352578 -0.58268
2010-10-18 13:40:18 51°23.96 3°11.4 22.1225 0.060897 0.352603 -0.58268
2010-10-18 13:41:18 51°23.958 3°11.304 22.1276 0.060897 0.352646 -0.547855
2010-10-18 13:42:18 51°23.954 3°11.205 22.1339 0.060897 0.352682 -0.617504
2010-10-18 13:43:18 51°23.95 3°11.109 22.1405 0.060897 0.352713 -0.547855
2010-10-18 13:44:18 51°23.946 3°11.014 22.1466 0.060897 0.35275 -0.547855
2010-10-18 13:45:18 51°23.938 3°10.921 22.1516 0.060897 0.352775 -0.547855
2010-10-18 13:46:18 51°23.923 3°10.831 22.1569 0.060897 0.352812 -0.547855
2010-10-18 13:47:18 51°23.897 3°10.749 22.1636 0.060897 0.35283 -0.58268
2010-10-18 13:48:18 51°23.87 3°10.669 22.1691 0.060897 0.352861 -0.547855
2010-10-18 13:49:18 51°23.84 3°10.598 22.1748 0.060897 0.352898 -0.547855
2010-10-18 13:50:18 51°23.797 3°10.556 22.1815 0.060897 0.352922 -0.58268
2010-10-18 13:51:18 51°23.747 3°10.555 22.1873 0.060897 0.352928 -0.58268
2010-10-18 13:52:18 51°23.695 3°10.568 22.1932 0.060897 0.352978 -0.547855
2010-10-18 13:53:18 51°23.643 3°10.559 22.1995 0.060897 0.352971 -0.547855
2010-10-18 13:54:18 51°23.597 3°10.527 22.2062 0.060897 0.353002 -0.58268
2010-10-18 13:55:18 51°23.554 3°10.483 22.2129 0.060897 0.353027 -0.58268
2010-10-18 13:56:18 51°23.523 3°10.411 22.2182 0.060897 0.353058 -0.58268
2010-10-18 13:57:18 51°23.508 3°10.315 22.2237 0.060897 0.353082 -0.547855
2010-10-18 13:58:18 51°23.525 3°10.237 22.228 0.060897 0.353113 -0.547855
2010-10-18 13:59:18 51°23.547 3°10.19 22.234 0.060897 0.353138 -0.547855
2010-10-18 14:00:18 51°23.565 3°10.154 22.2369 0.060897 0.353156 -0.58268
2010-10-18 14:01:18 51°23.588 3°10.114 22.2412 0.060897 0.353156 -0.58268
2010-10-18 14:02:18 51°23.648 3°10.1 22.2421 0.060897 0.353249 -0.58268
2010-10-18 14:03:18 51°23.655 3°10.197 22.2444 0.060897 0.353273 -0.547855
2010-10-18 14:04:18 51°23.544 3°10.307 22.2433 0.060897 0.35323 -0.547855
2010-10-18 14:05:18 51°23.388 3°10.506 22.2424 0.060897 0.353372 -0.58268
2010-10-18 14:06:18 51°23.262 3°10.763 22.2729 0.060897 0.35331 -0.547855
2010-10-18 14:07:18 51°23.129 3°11.02 22.277 0.060897 0.353341 -0.58268
2010-10-18 14:08:18 51°22.992 3°11.27 22.2888 0.060897 0.353372 -0.58268
2010-10-18 14:09:18 51°22.825 3°11.471 22.2964 0.060897 0.353403 -0.58268
2010-10-18 14:10:18 51°22.641 3°11.579 22.3037 0.060897 0.353446 -0.58268
2010-10-18 14:11:18 51°22.496 3°11.558 22.3073 0.060897 0.353477 -0.547855
2010-10-18 14:12:18 51°22.461 3°11.458 22.2733 0.060897 0.353483 -0.58268
2010-10-18 14:13:18 51°22.462 3°11.422 22.2797 0.060897 0.35352 -0.58268
2010-10-18 14:14:21 51°22.462 3°11.408 22.2914 0.060793 0.352915 -0.547855
2010-10-18 14:15:18 51°22.463 3°11.397 22.2973 0.060793 0.352952 -0.58268
2010-10-18 14:16:18 51°22.466 3°11.387 22.3079 0.060897 0.353588 -0.58268
2010-10-18 14:17:18 51°22.468 3°11.379 22.3135 0.060897 0.353637 -0.547855
2010-10-18 14:18:18 51°22.47 3°11.37 22.3204 0.060793 0.353014 -0.58268
2010-10-18 14:19:18 51°22.472 3°11.361 22.3271 0.060897 0.353681 -0.58268
2010-10-18 14:20:18 51°22.472 3°11.353 22.3315 0.060793 0.353063 -0.58268
2010-10-18 14:21:18 51°22.479 3°11.342 22.3372 0.060793 0.353131 -0.58268
2010-10-18 14:22:18 51°22.549 3°11.254 22.3414 0.060793 0.353094 -0.58268
2010-10-18 14:23:18 51°22.674 3°11.073 22.3462 0.060793 0.353224 -0.58268
2010-10-18 14:24:18 51°22.701 3°10.758 22.3529 0.060793 0.353168 -0.547855
2010-10-18 14:25:18 51°22.687 3°10.399 22.3511 0.060793 0.353187 -0.58268
2010-10-18 14:26:18 51°22.628 3°10.055 22.3559 0.060793 0.353298 -0.58268
2010-10-18 14:27:18 51°22.54 3°9.73 22.3671 0.060793 0.353224 -0.547855
2010-10-18 14:28:18 51°22.457 3°9.396 22.3699 0.060793 0.353329 -0.58268
2010-10-18 14:29:18 51°22.389 3°9.053 22.3751 0.060793 0.353329 -0.58268
2010-10-18 14:30:18 51°22.324 3°8.709 22.3785 0.060793 0.353347 -0.58268
2010-10-18 14:31:18 51°22.261 3°8.363 22.3822 0.060793 0.353452 -0.58268
2010-10-18 14:32:18 51°22.196 3°8.016 22.3873 0.060793 0.35344 -0.617504
2010-10-18 14:33:18 51°22.131 3°7.67 22.3915 0.060793 0.353434 -0.547855
2010-10-18 14:34:18 51°22.065 3°7.326 22.3945 0.060793 0.353496 -0.547855
2010-10-18 14:35:18 51°21.989 3°6.991 22.3907 0.060793 0.35352 -0.547855
2010-10-18 14:36:18 51°21.897 3°6.668 22.4028 0.060793 0.353582 -0.58268
2010-10-18 14:37:18 51°21.806 3°6.347 22.4075 0.060793 0.353539 -0.58268
2010-10-18 14:38:18 51°21.716 3°6.025 22.4102 0.060793 0.353582 -0.58268
2010-10-18 14:39:18 51°21.625 3°5.703 22.415 0.060793 0.353588 -0.547855
2010-10-18 14:40:18 51°21.535 3°5.382 22.4179 0.060793 0.353644 -0.58268
2010-10-18 14:41:18 51°21.444 3°5.061 22.4228 0.060793 0.353688 -0.547855
2010-10-18 14:42:18 51°21.357 3°4.738 22.4295 0.060793 0.353675 -0.547855
2010-10-18 14:43:18 51°21.277 3°4.408 22.4322 0.060793 0.353706 -0.547855
2010-10-18 14:44:18 51°21.196 3°4.079 22.4361 0.060793 0.353712 -0.58268
2010-10-18 14:45:18 51°21.114 3°3.751 22.4408 0.060793 0.353743 -0.58268
2010-10-18 14:46:18 51°21.033 3°3.423 22.4422 0.060793 0.353774 -0.547855
2010-10-18 14:47:18 51°20.954 3°3.098 22.4483 0.060793 0.353799 -0.617504
2010-10-18 14:48:18 51°20.874 3°2.774 22.4524 0.060793 0.353793 -0.547855
2010-10-18 14:49:18 51°20.793 3°2.447 22.4555 0.060793 0.353849 -0.58268
2010-10-18 14:50:18 51°20.712 3°2.122 22.4587 0.060793 0.353861 -0.58268
2010-10-18 14:51:18 51°20.631 3°1.798 22.4631 0.060793 0.353861 -0.547855
2010-10-18 14:52:18 51°20.55 3°1.476 22.4668 0.060793 0.35388 -0.547855
2010-10-18 14:53:18 51°20.469 3°1.153 22.4696 0.060793 0.353954 -0.58268
2010-10-18 14:54:18 51°20.388 3°0.83 22.4732 0.060793 0.353892 -0.58268
2010-10-18 14:55:18 51°20.307 3°0.509 22.4756 0.060793 0.353936 -0.547855
2010-10-18 14:56:18 51°20.225 3°0.189 22.48 0.060793 0.353942 -0.58268
2010-10-18 14:57:18 51°20.145 2°59.869 22.4836 0.060793 0.353979 -0.547855
2010-10-18 14:58:18 51°20.066 2°59.551 22.4868 0.060689 0.35336 -0.58268
2010-10-18 14:59:18 51°19.984 2°59.233 22.492 0.060793 0.354047 -0.58268
2010-10-18 15:00:18 51°19.902 2°58.914 22.4951 0.060793 0.354078 -0.547855
2010-10-18 15:01:18 51°19.821 2°58.594 22.5009 0.060689 0.353409 -0.547855
2010-10-18 15:02:18 51°19.738 2°58.276 22.5026 0.060793 0.354085 -0.547855
2010-10-18 15:03:18 51°19.656 2°57.956 22.506 0.060689 0.353459 -0.547855
2010-10-18 15:04:18 51°19.573 2°57.638 22.5085 0.060793 0.354134 -0.513031
2010-10-18 15:05:18 51°19.49 2°57.318 22.5117 0.060689 0.353465 -0.58268
2010-10-18 15:06:18 51°19.406 2°56.998 22.5159 0.060793 0.354172 -0.58268
2010-10-18 15:07:18 51°19.321 2°56.679 22.5189 0.060793 0.354147 -0.547855
2010-10-18 15:08:18 51°19.235 2°56.358 22.5224 0.060793 0.354197 -0.58268
2010-10-18 15:09:18 51°19.149 2°56.035 22.5262 0.060689 0.353546 -0.58268
2010-10-18 15:10:18 51°19.063 2°55.713 22.5298 0.060689 0.353596 -0.547855
2010-10-18 15:11:18 51°18.975 2°55.389 22.5335 0.060689 0.353596 -0.58268
2010-10-18 15:12:18 51°18.887 2°55.065 22.5368 0.060689 0.353633 -0.58268
2010-10-18 15:13:18 51°18.799 2°54.743 22.5405 0.060689 0.353658 -0.58268
2010-10-18 15:14:18 51°18.713 2°54.421 22.5447 0.060689 0.35362 -0.547855
2010-10-18 15:15:18 51°18.626 2°54.101 22.5472 0.060689 0.353707 -0.547855
2010-10-18 15:16:18 51°18.54 2°53.782 22.5511 0.060793 0.354308 -0.58268
2010-10-18 15:17:18 51°18.454 2°53.467 21.8903 0.060689 0.353707 -0.58268
2010-10-18 15:18:18 51°18.369 2°53.154 21.9891 0.060689 0.353707 -0.58268
2010-10-18 15:19:18 51°18.279 2°52.842 22.0105 0.060689 0.353726 -0.58268
2010-10-18 15:20:18 51°18.152 2°52.568 22.0192 0.060689 0.353776 -0.58268
2010-10-18 15:21:18 51°17.993 2°52.338 22.1273 0.060689 0.353813 -0.58268
2010-10-18 15:22:18 51°17.803 2°52.196 22.0103 0.060689 0.353769 -0.58268
2010-10-18 15:23:18 51°17.593 2°52.226 22.1918 0.060689 0.353881 -0.547855
2010-10-18 15:24:18 51°17.387 2°52.308 22.1034 0.060689 0.353633 -0.58268
2010-10-18 15:25:18 51°17.19 2°52.431 21.9382 0.060689 0.35413 -0.513031
2010-10-18 15:26:18 51°17.004 2°52.59 22.1061 0.060689 0.354174 -0.547855
2010-10-18 15:27:18 51°16.815 2°52.737 21.8501 0.060689 0.354143 -0.547855
2010-10-18 15:28:18 51°16.617 2°52.858 21.7936 0.060689 0.353944 -0.547855
2010-10-18 15:29:18 51°16.417 2°52.973 22.0927 0.060689 0.353695 -0.58268
2010-10-18 15:30:18 51°16.219 2°53.093 22.029 0.060689 0.353869 -0.547855
2010-10-18 15:31:18 51°16.035 2°53.261 21.8665 0.060689 0.353279 -0.58268
2010-10-18 15:32:18 51°15.865 2°53.459 21.8123 0.060689 0.354299 -0.58268
2010-10-18 15:33:18 51°15.705 2°53.675 21.8955 0.060689 0.353385 -0.58268
2010-10-18 15:34:18 51°15.537 2°53.877 21.9148 0.060689 0.353317 -0.547855
2010-10-18 15:35:18 51°15.373 2°54.082 21.9197 0.060689 0.353838 -0.58268
2010-10-18 15:36:18 51°15.207 2°54.288 21.9091 0.060689 0.353769 -0.547855
2010-10-18 15:37:18 51°15.036 2°54.483 21.9093 0.060689 0.353776 -0.58268
2010-10-18 15:38:18 51°14.86 2°54.676 21.9273 0.060689 0.35372 -0.58268
2010-10-18 15:39:18 51°14.682 2°54.857 21.9865 0.060689 0.353925 -0.547855
2010-10-18 15:40:18 51°14.507 2°55.043 21.9235 0.060689 0.353975 -0.617504
2010-10-18 15:41:18 51°14.345 2°55.23 21.9317 0.060689 0.353987 -0.547855
2010-10-18 15:42:18 51°14.196 2°55.362 21.8982 0.060689 0.353987 -0.547855
2010-10-18 15:43:19 51°14.06 2°55.464 21.8713 0.060689 0.354087 -0.58268
2010-10-18 15:44:18 51°13.948 2°55.546 21.9014 0.060689 0.354136 -0.58268
2010-10-18 15:45:18 51°13.845 2°55.622 21.8885 0.060585 0.353547 -0.547855
2010-10-18 15:46:18 51°13.762 2°55.715 21.8742 0.060689 0.354205 -0.547855
2010-10-18 15:47:18 51°13.71 2°55.822 21.8976 0.060585 0.353603 -0.58268
2010-10-18 15:48:18 51°13.672 2°55.922 21.9114 0.060585 0.353615 -0.547855
2010-10-18 15:49:18 51°13.661 2°55.96 21.8873 0.060585 0.353665 -0.547855
2010-10-18 15:50:18 51°13.661 2°55.96 21.895 0.060585 0.353678 -0.547855